Time;durP1;ratioP1;P1;durP2;ratioP2;P2;SDS_P1;SDS_P2;PMS_P1;PMS_P2;Temp;Humidity;BMP_temperature;BMP_pressure;BME280_temperature;BME280_humidity;BME280_pressure;Samples;Min_cycle;Max_cycle;Signal;HPM_P1;HPM_P2
2022/10/18 00:02:10;;;;;;;752.20;630.27;;;15.00;99.90;;;;;;5015834;28;20453;-84
2022/10/18 00:04:37;;;;;;;755.47;621.30;;;15.00;99.90;;;;;;5015662;28;20457;-83
2022/10/18 00:07:05;;;;;;;759.03;614.60;;;15.00;99.90;;;;;;5015251;28;20486;-84
2022/10/18 00:09:32;;;;;;;756.30;616.43;;;15.10;99.90;;;;;;5015868;28;20455;-84
2022/10/18 00:11:59;;;;;;;755.27;651.93;;;15.10;99.90;;;;;;5015153;28;20461;-84
2022/10/18 00:14:26;;;;;;;757.63;614.40;;;15.00;99.90;;;;;;5015837;28;20848;-84
2022/10/18 00:16:53;;;;;;;761.97;621.03;;;15.00;99.90;;;;;;5016117;28;20503;-83
2022/10/18 00:19:20;;;;;;;759.80;620.00;;;15.00;99.90;;;;;;5016242;28;20500;-84
2022/10/18 00:21:49;;;;;;;759.63;617.93;;;15.10;99.90;;;;;;5015675;28;20523;-85
2022/10/18 00:24:17;;;;;;;763.13;621.60;;;15.00;99.90;;;;;;5015497;28;20461;-84
2022/10/18 00:26:44;;;;;;;762.87;612.83;;;15.00;99.90;;;;;;5015784;28;21066;-84
2022/10/18 00:29:14;;;;;;;763.70;608.03;;;15.00;99.90;;;;;;5015584;28;20459;-84
2022/10/18 00:31:42;;;;;;;757.07;609.20;;;15.00;99.90;;;;;;5015594;28;20465;-83
2022/10/18 00:34:12;;;;;;;751.03;615.47;;;15.00;99.90;;;;;;5015569;28;20457;-85
2022/10/18 00:36:39;;;;;;;757.00;610.10;;;14.90;99.90;;;;;;5016422;28;20475;-85
2022/10/18 00:39:07;;;;;;;760.80;616.27;;;14.90;99.90;;;;;;5015621;28;20482;-84
2022/10/18 00:41:37;;;;;;;760.53;618.70;;;15.00;99.90;;;;;;5015594;28;20461;-83
2022/10/18 00:44:06;;;;;;;764.70;633.40;;;15.00;99.90;;;;;;5015731;28;20885;-84
2022/10/18 00:46:34;;;;;;;766.23;612.00;;;15.00;99.90;;;;;;5015745;28;20479;-86
2022/10/18 00:49:06;;;;;;;768.43;617.10;;;15.00;99.90;;;;;;5015667;28;20454;-85
2022/10/18 00:51:38;;;;;;;757.73;610.03;;;15.10;99.90;;;;;;5015997;28;20454;-85
2022/10/18 00:54:05;;;;;;;758.23;619.67;;;15.10;99.90;;;;;;5015630;28;20464;-85
2022/10/18 00:56:33;;;;;;;762.57;617.70;;;15.10;99.90;;;;;;5015534;28;20848;-85
2022/10/18 00:59:02;;;;;;;762.87;617.80;;;15.00;99.90;;;;;;5015809;28;20457;-85
2022/10/18 01:01:28;;;;;;;757.47;615.27;;;15.00;99.90;;;;;;5015628;28;20464;-85
2022/10/18 01:03:56;;;;;;;759.77;617.00;;;15.00;99.90;;;;;;5015310;28;20835;-84
2022/10/18 01:06:23;;;;;;;765.00;618.20;;;15.00;99.90;;;;;;5015288;28;20489;-85
2022/10/18 01:09:04;;;;;;;757.07;607.93;;;15.10;99.90;;;;;;5015454;28;20454;-85
2022/10/18 01:11:45;;;;;;;761.60;613.17;;;15.00;99.90;;;;;;5015499;28;20476;-84
2022/10/18 01:14:24;;;;;;;762.23;615.37;;;15.00;99.90;;;;;;5014778;28;20457;-85
2022/10/18 01:16:56;;;;;;;760.73;615.23;;;15.00;99.90;;;;;;5015378;28;20479;-85
2022/10/18 01:19:48;;;;;;;767.60;620.27;;;15.00;99.90;;;;;;5015413;28;20466;-85
2022/10/18 01:22:22;;;;;;;769.80;624.80;;;15.00;99.90;;;;;;5018813;28;20848;-86
2022/10/18 01:25:06;;;;;;;767.90;619.57;;;15.00;99.90;;;;;;5018634;28;20461;-85
2022/10/18 01:27:44;;;;;;;776.30;609.97;;;15.10;99.90;;;;;;5018622;28;20481;-85
2022/10/18 01:30:37;;;;;;;767.97;614.63;;;15.00;99.90;;;;;;5018514;28;20457;-85
2022/10/18 01:33:11;;;;;;;769.03;617.33;;;15.10;99.90;;;;;;5018558;28;20454;-85
2022/10/18 01:35:43;;;;;;;760.87;621.47;;;15.00;99.90;;;;;;5018704;28;20477;-85
2022/10/18 01:38:15;;;;;;;755.97;607.67;;;15.00;99.90;;;;;;5018515;28;20456;-84
2022/10/18 01:40:45;;;;;;;765.40;620.67;;;15.00;99.90;;;;;;5018683;28;20464;-85
2022/10/18 01:43:13;;;;;;;758.00;610.87;;;15.00;99.90;;;;;;5018150;28;20850;-85
2022/10/18 01:45:42;;;;;;;760.93;618.77;;;14.90;99.90;;;;;;5018949;28;20480;-85
2022/10/18 01:48:10;;;;;;;752.40;616.27;;;14.90;99.90;;;;;;5018077;28;20477;-85
2022/10/18 01:50:37;;;;;;;755.60;625.07;;;14.90;99.90;;;;;;5018478;28;20457;-85
2022/10/18 01:53:04;;;;;;;773.23;622.20;;;15.00;99.90;;;;;;5018137;28;20869;-85
2022/10/18 01:55:50;;;;;;;760.67;614.90;;;14.90;99.90;;;;;;5017565;28;20458;-85
2022/10/18 01:58:27;;;;;;;762.77;607.07;;;14.90;99.90;;;;;;5018233;28;20490;-84
2022/10/18 02:01:04;;;;;;;764.43;605.93;;;15.00;99.90;;;;;;5018245;28;20459;-84
2022/10/18 02:03:31;;;;;;;778.40;617.47;;;15.00;99.90;;;;;;5018198;28;20469;-85
2022/10/18 02:06:05;;;;;;;783.10;658.40;;;14.90;99.90;;;;;;5017420;28;20497;-84
2022/10/18 02:08:37;;;;;;;764.90;609.57;;;14.80;99.90;;;;;;5017852;28;20461;-83
2022/10/18 02:11:06;;;;;;;766.30;608.70;;;14.80;99.90;;;;;;5017600;28;20457;-84
2022/10/18 02:13:40;;;;;;;777.47;629.53;;;14.90;99.90;;;;;;5017402;28;20538;-83
2022/10/18 02:16:16;;;;;;;765.90;608.53;;;14.90;99.90;;;;;;5017588;28;20604;-83
2022/10/18 02:18:49;;;;;;;776.90;622.07;;;14.90;99.90;;;;;;5017336;28;20461;-83
2022/10/18 02:21:19;;;;;;;776.37;617.53;;;14.90;99.90;;;;;;5017392;28;20456;-84
2022/10/18 02:23:47;;;;;;;773.30;620.50;;;14.90;99.90;;;;;;5016736;28;20460;-84
2022/10/18 02:26:15;;;;;;;770.20;611.50;;;14.90;99.90;;;;;;5016657;28;21013;-83
2022/10/18 02:28:42;;;;;;;773.57;615.93;;;14.90;99.90;;;;;;5017048;28;20464;-84
2022/10/18 02:31:16;;;;;;;773.10;641.23;;;14.90;99.90;;;;;;5017121;28;20460;-83
2022/10/18 02:33:50;;;;;;;769.10;622.00;;;14.90;99.90;;;;;;5016517;28;20457;-82
2022/10/18 02:36:22;;;;;;;761.83;613.77;;;14.90;99.90;;;;;;5016732;28;20487;-83
2022/10/18 02:38:53;;;;;;;764.80;618.07;;;14.90;99.90;;;;;;5017007;28;20463;-84
2022/10/18 02:41:23;;;;;;;771.17;629.60;;;15.00;99.90;;;;;;5016614;28;20970;-84
2022/10/18 02:43:50;;;;;;;768.93;620.57;;;14.90;99.90;;;;;;5016729;28;20458;-84
2022/10/18 02:46:19;;;;;;;769.80;615.13;;;14.90;99.90;;;;;;5017000;28;20479;-85
2022/10/18 02:48:46;;;;;;;762.07;604.70;;;15.00;99.90;;;;;;5016845;28;20457;-84
2022/10/18 02:51:13;;;;;;;765.17;618.00;;;14.90;99.90;;;;;;5016781;28;20457;-83
2022/10/18 02:53:39;;;;;;;758.30;613.33;;;14.90;99.90;;;;;;5016585;28;20465;-84
2022/10/18 02:56:06;;;;;;;753.07;614.07;;;15.00;99.90;;;;;;5016593;28;20471;-83
2022/10/18 02:58:33;;;;;;;772.80;600.47;;;14.90;99.90;;;;;;5016987;28;20476;-84
2022/10/18 03:01:00;;;;;;;765.73;619.20;;;15.00;99.90;;;;;;5016616;28;20462;-84
2022/10/18 03:03:28;;;;;;;760.00;618.00;;;14.90;99.90;;;;;;5016103;28;20461;-83
2022/10/18 03:05:55;;;;;;;770.40;631.93;;;15.00;99.90;;;;;;5016200;28;20480;-83
2022/10/18 03:08:21;;;;;;;751.67;629.80;;;15.00;99.90;;;;;;5016521;28;20998;-83
2022/10/18 03:10:48;;;;;;;764.97;634.50;;;15.00;99.90;;;;;;5016670;28;20471;-84
2022/10/18 03:13:15;;;;;;;761.87;636.40;;;15.00;99.90;;;;;;5016566;28;20842;-83
2022/10/18 03:15:42;;;;;;;747.73;634.17;;;15.00;99.90;;;;;;5016011;28;20481;-84
2022/10/18 03:18:09;;;;;;;750.73;622.97;;;15.00;99.90;;;;;;5016164;28;21013;-84
2022/10/18 03:20:38;;;;;;;745.27;621.37;;;14.90;99.90;;;;;;5016170;28;20462;-83
2022/10/18 03:23:06;;;;;;;742.77;632.47;;;14.90;99.90;;;;;;5015947;28;20457;-83
2022/10/18 03:25:33;;;;;;;741.87;632.47;;;14.90;99.90;;;;;;5016064;28;20515;-83
2022/10/18 03:28:00;;;;;;;761.93;634.30;;;14.90;99.90;;;;;;5016291;28;20481;-83
2022/10/18 03:30:26;;;;;;;746.27;635.80;;;14.90;99.90;;;;;;5016020;28;20459;-83
2022/10/18 03:32:53;;;;;;;763.47;656.63;;;14.90;99.90;;;;;;5016353;28;20763;-83
2022/10/18 03:35:20;;;;;;;744.83;658.27;;;14.90;99.90;;;;;;5016022;28;20520;-84
2022/10/18 03:37:48;;;;;;;745.90;645.80;;;14.90;99.90;;;;;;5015567;28;20524;-83
2022/10/18 03:40:15;;;;;;;744.93;648.87;;;14.90;99.90;;;;;;5015692;28;20454;-83
2022/10/18 03:42:42;;;;;;;749.40;631.07;;;14.90;99.90;;;;;;5015149;28;20449;-84
2022/10/18 03:45:09;;;;;;;742.77;652.30;;;14.90;99.90;;;;;;5015270;28;20451;-84
2022/10/18 03:47:36;;;;;;;735.80;648.80;;;15.00;99.90;;;;;;5015741;28;20487;-85
2022/10/18 03:50:03;;;;;;;755.13;672.03;;;14.90;99.90;;;;;;5016071;28;20892;-84
2022/10/18 03:52:30;;;;;;;768.50;649.93;;;14.90;99.90;;;;;;5016054;28;20464;-84
2022/10/18 03:54:58;;;;;;;765.60;671.60;;;14.90;99.90;;;;;;5015906;28;20458;-85
2022/10/18 03:57:25;;;;;;;767.60;660.00;;;14.90;99.90;;;;;;5015533;28;20895;-84
2022/10/18 03:59:51;;;;;;;752.67;657.93;;;14.90;99.90;;;;;;5015974;28;20454;-84
2022/10/18 04:02:18;;;;;;;761.93;646.50;;;14.80;99.90;;;;;;5015987;28;20457;-84
2022/10/18 04:04:45;;;;;;;764.53;648.80;;;14.90;99.90;;;;;;5015691;28;20453;-84
2022/10/18 04:07:12;;;;;;;775.27;659.60;;;14.80;99.90;;;;;;5015373;28;20482;-84
2022/10/18 04:09:38;;;;;;;740.53;652.73;;;14.90;99.90;;;;;;5015563;28;20457;-84
2022/10/18 04:12:06;;;;;;;782.30;663.97;;;14.90;99.90;;;;;;5015791;28;20463;-84
2022/10/18 04:14:33;;;;;;;749.83;659.33;;;14.90;99.90;;;;;;5015950;28;20469;-84
2022/10/18 04:17:00;;;;;;;757.33;673.53;;;15.00;99.90;;;;;;5015724;28;20472;-84
2022/10/18 04:19:27;;;;;;;770.80;686.57;;;15.00;99.90;;;;;;5015581;28;20456;-84
2022/10/18 04:21:55;;;;;;;779.43;680.10;;;15.00;99.90;;;;;;5016002;28;20511;-84
2022/10/18 04:24:22;;;;;;;783.87;683.07;;;14.90;99.90;;;;;;5014702;28;20459;-84
2022/10/18 04:26:49;;;;;;;773.83;676.80;;;15.00;99.90;;;;;;5016009;28;20478;-84
2022/10/18 04:29:20;;;;;;;777.53;693.07;;;15.00;99.90;;;;;;5016264;28;20460;-84
2022/10/18 04:31:47;;;;;;;789.97;705.27;;;15.00;99.90;;;;;;5015752;28;20464;-84
2022/10/18 04:34:13;;;;;;;766.20;681.83;;;15.00;99.90;;;;;;5015730;28;20951;-84
2022/10/18 04:36:40;;;;;;;763.97;680.00;;;15.00;99.90;;;;;;5015328;28;20487;-84
2022/10/18 04:39:07;;;;;;;760.43;676.70;;;15.00;99.90;;;;;;5016105;28;20841;-84
2022/10/18 04:41:34;;;;;;;762.77;674.13;;;15.00;99.90;;;;;;5015770;28;20453;-84
2022/10/18 04:44:00;;;;;;;773.80;689.10;;;15.00;99.90;;;;;;5015508;28;20464;-85
2022/10/18 04:46:28;;;;;;;789.57;691.73;;;15.10;99.90;;;;;;5015620;28;20474;-85
2022/10/18 04:48:55;;;;;;;768.47;683.90;;;15.00;99.90;;;;;;5015564;28;20492;-84
2022/10/18 04:51:25;;;;;;;776.63;692.83;;;15.00;99.90;;;;;;5015846;28;20942;-85
2022/10/18 04:53:51;;;;;;;780.70;695.90;;;15.00;99.90;;;;;;5014820;28;20457;-84
2022/10/18 04:56:18;;;;;;;770.23;685.83;;;15.00;99.90;;;;;;5018043;28;20480;-84
2022/10/18 04:58:45;;;;;;;802.00;690.80;;;15.00;99.90;;;;;;5019445;28;20453;-84
2022/10/18 05:01:12;;;;;;;784.13;698.70;;;15.00;99.90;;;;;;5019344;28;20452;-84
2022/10/18 05:03:40;;;;;;;788.60;693.77;;;15.00;99.90;;;;;;5018580;28;20450;-84
2022/10/18 05:06:07;;;;;;;788.20;703.43;;;15.00;99.90;;;;;;5019076;28;20485;-84
2022/10/18 05:08:35;;;;;;;785.13;698.67;;;15.00;99.90;;;;;;5019073;28;20911;-85
2022/10/18 05:11:02;;;;;;;805.17;718.23;;;15.00;99.90;;;;;;5019547;28;20476;-83
2022/10/18 05:13:30;;;;;;;798.80;710.60;;;15.00;99.90;;;;;;5018655;28;20462;-84
2022/10/18 05:15:58;;;;;;;781.73;684.47;;;15.00;99.90;;;;;;5018467;28;20477;-84
2022/10/18 05:18:25;;;;;;;789.33;703.10;;;15.00;99.90;;;;;;5019281;28;20511;-85
2022/10/18 05:20:53;;;;;;;779.77;694.60;;;15.00;99.90;;;;;;5018974;28;20446;-85
2022/10/18 05:23:19;;;;;;;778.00;691.93;;;15.00;99.90;;;;;;5018443;28;20804;-85
2022/10/18 05:25:46;;;;;;;776.43;690.83;;;15.10;99.90;;;;;;5018796;28;20477;-85
2022/10/18 05:28:13;;;;;;;789.67;702.57;;;15.00;99.90;;;;;;5018871;28;20531;-84
2022/10/18 05:30:40;;;;;;;785.93;699.97;;;15.10;99.90;;;;;;5018676;28;20471;-84
2022/10/18 05:33:09;;;;;;;774.60;684.57;;;15.00;99.90;;;;;;5018187;28;20468;-83
2022/10/18 05:35:36;;;;;;;792.50;706.50;;;15.00;99.90;;;;;;5018600;28;20484;-85
2022/10/18 05:38:05;;;;;;;782.93;698.93;;;15.10;99.90;;;;;;5018668;28;20544;-84
2022/10/18 05:40:31;;;;;;;809.27;723.80;;;15.10;99.90;;;;;;5018332;28;20457;-84
2022/10/18 05:43:01;;;;;;;794.87;710.00;;;15.00;99.90;;;;;;5018215;28;20466;-85
2022/10/18 05:45:28;;;;;;;780.10;694.63;;;15.10;99.90;;;;;;5017980;28;20458;-84
2022/10/18 05:47:54;;;;;;;799.97;714.03;;;15.10;99.90;;;;;;5019193;28;20477;-85
2022/10/18 05:50:21;;;;;;;787.90;702.87;;;15.10;99.90;;;;;;5018958;28;20525;-85
2022/10/18 05:52:48;;;;;;;815.97;729.97;;;15.10;99.90;;;;;;5018508;28;20465;-84
2022/10/18 05:55:16;;;;;;;799.50;714.47;;;15.20;99.90;;;;;;5017838;28;20464;-85
2022/10/18 05:57:43;;;;;;;811.87;726.27;;;15.20;99.90;;;;;;5018309;28;20465;-85
2022/10/18 06:00:11;;;;;;;823.63;735.57;;;15.20;99.90;;;;;;5018456;28;20969;-85
2022/10/18 06:02:38;;;;;;;797.60;710.83;;;15.10;99.90;;;;;;5019248;28;20955;-84
2022/10/18 06:05:05;;;;;;;786.00;696.93;;;15.10;99.90;;;;;;5019580;28;20486;-85
2022/10/18 06:07:32;;;;;;;803.57;715.13;;;15.20;99.90;;;;;;5018692;28;20849;-84
2022/10/18 06:09:58;;;;;;;796.63;711.07;;;15.10;99.90;;;;;;5018455;28;20464;-84
2022/10/18 06:12:26;;;;;;;772.87;681.80;;;15.10;99.90;;;;;;5018217;28;20823;-84
2022/10/18 06:14:53;;;;;;;821.30;699.77;;;15.10;99.90;;;;;;5017095;28;20454;-85
2022/10/18 06:17:20;;;;;;;792.20;705.33;;;15.20;99.90;;;;;;5018036;28;20474;-85
2022/10/18 06:19:46;;;;;;;788.57;694.07;;;15.10;99.90;;;;;;5018227;28;20458;-85
2022/10/18 06:22:13;;;;;;;779.73;678.87;;;15.10;99.90;;;;;;5017676;28;20455;-85
2022/10/18 06:24:40;;;;;;;789.90;684.10;;;15.10;99.90;;;;;;5017743;28;20460;-83
2022/10/18 06:27:08;;;;;;;806.47;706.17;;;15.00;99.90;;;;;;5018220;28;20477;-85
2022/10/18 06:29:36;;;;;;;787.03;699.70;;;15.10;99.90;;;;;;5017216;28;20488;-84
2022/10/18 06:32:04;;;;;;;801.63;715.53;;;15.00;99.90;;;;;;5017272;28;20473;-85
2022/10/18 06:34:30;;;;;;;797.03;709.47;;;15.10;99.90;;;;;;5018375;28;20461;-85
2022/10/18 06:36:57;;;;;;;803.20;715.30;;;15.10;99.90;;;;;;5018908;28;20490;-85
2022/10/18 06:39:24;;;;;;;803.63;716.67;;;15.10;99.90;;;;;;5017726;28;20473;-85
2022/10/18 06:41:51;;;;;;;794.50;707.67;;;15.10;99.90;;;;;;5018241;28;20470;-85
2022/10/18 06:44:18;;;;;;;800.53;713.97;;;15.20;99.90;;;;;;5017961;28;20453;-85
2022/10/18 06:46:47;;;;;;;782.80;698.07;;;15.20;99.90;;;;;;5017322;28;20500;-85
2022/10/18 06:49:15;;;;;;;789.50;693.37;;;15.20;99.90;;;;;;5017383;28;20565;-84
2022/10/18 06:51:42;;;;;;;776.47;691.47;;;15.20;99.90;;;;;;5017842;28;20467;-85
2022/10/18 06:54:09;;;;;;;789.23;701.80;;;15.20;99.90;;;;;;5018158;28;20460;-85
2022/10/18 06:56:36;;;;;;;782.43;696.87;;;15.20;99.90;;;;;;5015453;28;20487;-85
2022/10/18 06:59:03;;;;;;;790.40;703.30;;;15.20;99.90;;;;;;5003459;28;20458;-86
2022/10/18 07:01:30;;;;;;;769.07;685.67;;;15.20;99.90;;;;;;4997759;28;20466;-85
2022/10/18 07:03:58;;;;;;;769.63;684.60;;;15.20;99.90;;;;;;4996497;28;20463;-85
2022/10/18 07:06:25;;;;;;;768.97;682.67;;;15.30;99.90;;;;;;4996925;28;20470;-85
2022/10/18 07:08:53;;;;;;;765.40;681.10;;;15.20;99.90;;;;;;4997151;28;20485;-85
2022/10/18 07:11:22;;;;;;;765.37;677.83;;;15.20;99.90;;;;;;4996957;28;20459;-85
2022/10/18 07:13:49;;;;;;;773.23;686.50;;;15.20;99.90;;;;;;4996263;28;20450;-84
2022/10/18 07:16:18;;;;;;;768.83;674.83;;;15.20;99.90;;;;;;4997275;28;20474;-85
2022/10/18 07:18:47;;;;;;;763.40;673.20;;;15.20;99.90;;;;;;4996487;28;20452;-84
2022/10/18 07:21:17;;;;;;;776.73;679.83;;;15.20;99.90;;;;;;4996932;28;20462;-84
2022/10/18 07:23:45;;;;;;;769.33;684.73;;;15.20;99.90;;;;;;4996279;28;20956;-84
2022/10/18 07:26:15;;;;;;;774.50;687.60;;;15.30;99.90;;;;;;4996421;28;20474;-84
2022/10/18 07:28:42;;;;;;;765.70;680.77;;;15.20;99.90;;;;;;4996532;28;20495;-84
2022/10/18 07:31:10;;;;;;;784.37;698.60;;;15.40;99.90;;;;;;4996013;28;20456;-85
2022/10/18 07:33:37;;;;;;;784.70;700.20;;;15.40;99.90;;;;;;4996282;28;20455;-84
2022/10/18 07:36:06;;;;;;;776.43;691.67;;;15.60;99.90;;;;;;4996510;28;20915;-84
2022/10/18 07:38:34;;;;;;;783.93;699.00;;;15.60;99.90;;;;;;4996908;28;20459;-85
2022/10/18 07:41:02;;;;;;;780.80;696.23;;;15.60;99.90;;;;;;4999506;28;20469;-86
2022/10/18 07:43:29;;;;;;;785.37;700.20;;;15.70;99.90;;;;;;4978505;28;21061;-86
2022/10/18 07:45:58;;;;;;;785.93;703.53;;;15.70;99.90;;;;;;4977250;28;20481;-85
2022/10/18 07:48:25;;;;;;;788.00;705.70;;;15.70;99.90;;;;;;4976665;28;20483;-84
2022/10/18 07:50:53;;;;;;;789.67;707.60;;;15.70;99.90;;;;;;4977299;28;20877;-85
2022/10/18 07:53:19;;;;;;;767.73;686.13;;;15.70;99.90;;;;;;4976434;28;20457;-85
2022/10/18 07:55:47;;;;;;;788.87;706.73;;;15.70;99.90;;;;;;4976133;28;21044;-84
2022/10/18 07:58:14;;;;;;;780.07;697.57;;;15.60;99.90;;;;;;4976700;28;20456;-85
2022/10/18 08:00:41;;;;;;;768.70;686.93;;;15.70;99.90;;;;;;4977403;28;20460;-85
2022/10/18 08:03:07;;;;;;;765.53;684.13;;;15.70;99.90;;;;;;4976608;28;20458;-86
2022/10/18 08:05:34;;;;;;;793.53;713.60;;;15.80;99.90;;;;;;4977321;28;20475;-86
2022/10/18 08:08:01;;;;;;;783.70;706.47;;;15.80;99.90;;;;;;4976957;28;20460;-85
2022/10/18 08:10:29;;;;;;;779.00;699.30;;;16.00;99.90;;;;;;4977313;28;20459;-85
2022/10/18 08:12:57;;;;;;;781.63;703.53;;;16.00;99.90;;;;;;4976921;28;20920;-85
2022/10/18 08:15:24;;;;;;;789.30;711.47;;;16.10;99.90;;;;;;4976112;28;20965;-85
2022/10/18 08:17:51;;;;;;;773.17;698.37;;;16.10;99.90;;;;;;4977613;28;20453;-85
2022/10/18 08:20:18;;;;;;;770.70;695.80;;;16.10;99.90;;;;;;4977720;28;20457;-85
2022/10/18 08:22:45;;;;;;;771.60;698.53;;;16.20;99.90;;;;;;4977283;28;20808;-85
2022/10/18 08:25:12;;;;;;;766.20;696.07;;;16.30;99.90;;;;;;4976927;28;20546;-85
2022/10/18 08:27:38;;;;;;;776.73;704.97;;;16.30;99.90;;;;;;4977099;28;21015;-85
2022/10/18 08:30:08;;;;;;;779.97;707.17;;;16.30;99.90;;;;;;4979036;28;20481;-84
2022/10/18 08:32:35;;;;;;;774.97;704.17;;;16.30;99.90;;;;;;4981350;28;20597;-85
2022/10/18 08:35:01;;;;;;;780.00;708.13;;;16.20;99.90;;;;;;4981117;28;20494;-83
2022/10/18 08:37:28;;;;;;;778.57;707.37;;;16.30;99.90;;;;;;4980894;28;20848;-85
2022/10/18 08:39:55;;;;;;;778.77;709.07;;;16.30;99.90;;;;;;4981148;28;20462;-85
2022/10/18 08:42:39;;;;;;;764.63;696.47;;;16.30;99.90;;;;;;4980840;28;20454;-85
2022/10/18 08:45:11;;;;;;;758.80;692.77;;;16.20;99.90;;;;;;4980025;28;20461;-85
2022/10/18 08:47:41;;;;;;;761.00;693.60;;;16.20;99.90;;;;;;4981180;28;20859;-85
2022/10/18 08:50:16;;;;;;;766.03;697.97;;;16.30;99.90;;;;;;4980682;28;20863;-85
2022/10/18 08:52:49;;;;;;;761.47;695.10;;;16.40;99.90;;;;;;4980617;28;20470;-85
2022/10/18 08:55:22;;;;;;;770.33;705.43;;;16.40;99.90;;;;;;4979987;28;20469;-85
2022/10/18 08:57:50;;;;;;;765.50;699.20;;;16.40;99.90;;;;;;4980798;28;20565;-85
2022/10/18 09:00:21;;;;;;;780.73;714.83;;;16.40;99.90;;;;;;4981128;28;20486;-85
2022/10/18 09:03:03;;;;;;;767.93;702.70;;;16.40;99.90;;;;;;4980494;28;20462;-85
2022/10/18 09:05:39;;;;;;;758.67;691.67;;;16.40;99.90;;;;;;4979895;28;20690;-86
2022/10/18 09:08:25;;;;;;;766.90;700.63;;;16.50;99.90;;;;;;4980638;28;20458;-85
2022/10/18 09:11:02;;;;;;;767.70;702.67;;;16.60;99.90;;;;;;4980940;28;20500;-86
2022/10/18 09:14:14;;;;;;;768.47;704.07;;;16.60;99.90;;;;;;4980620;28;20981;-84
2022/10/18 09:16:50;;;;;;;765.23;702.83;;;16.70;99.90;;;;;;4902495;29;20478;-86
2022/10/18 09:19:25;;;;;;;767.83;704.80;;;16.80;99.90;;;;;;4966580;28;20450;-86
2022/10/18 09:21:54;;;;;;;770.07;709.90;;;16.90;99.90;;;;;;4980692;28;20886;-85
2022/10/18 09:24:27;;;;;;;749.97;692.23;;;17.00;99.90;;;;;;4980744;28;20462;-86
2022/10/18 09:27:00;;;;;;;754.60;697.77;;;17.00;99.90;;;;;;4980539;28;20481;-85
2022/10/18 09:29:50;;;;;;;757.33;697.90;;;17.10;99.90;;;;;;4980571;28;20492;-86
2022/10/18 09:32:31;;;;;;;742.97;686.90;;;17.30;99.90;;;;;;4981052;28;21008;-85
2022/10/18 09:35:04;;;;;;;746.97;692.43;;;17.50;99.90;;;;;;4981399;28;20464;-83
2022/10/18 09:37:34;;;;;;;759.80;704.73;;;17.60;99.90;;;;;;4981050;28;20481;-83
2022/10/18 09:40:12;;;;;;;731.93;679.97;;;17.40;99.90;;;;;;4980503;28;20461;-83
2022/10/18 09:42:53;;;;;;;774.87;718.77;;;17.40;99.90;;;;;;4979719;28;20456;-83
2022/10/18 09:45:25;;;;;;;762.50;707.70;;;17.40;99.90;;;;;;4980115;28;20469;-83
2022/10/18 09:48:03;;;;;;;724.70;675.50;;;17.70;99.90;;;;;;4980866;28;20451;-83
2022/10/18 09:50:35;;;;;;;760.87;707.70;;;17.40;99.90;;;;;;4979889;28;21009;-83
2022/10/18 09:53:11;;;;;;;766.13;713.33;;;17.30;99.90;;;;;;4996744;28;20451;-83
2022/10/18 09:55:49;;;;;;;739.97;691.40;;;17.30;99.90;;;;;;4999335;28;20970;-84
2022/10/18 09:58:17;;;;;;;750.23;700.83;;;17.20;99.90;;;;;;4999436;28;20460;-84
2022/10/18 10:00:51;;;;;;;779.10;724.80;;;17.20;99.90;;;;;;4999703;28;20828;-85
2022/10/18 10:03:19;;;;;;;758.93;706.13;;;17.20;99.90;;;;;;4998402;28;20468;-84
2022/10/18 10:05:46;;;;;;;725.57;673.47;;;17.30;99.90;;;;;;4998915;28;20478;-84
2022/10/18 10:08:13;;;;;;;727.30;677.63;;;17.20;99.90;;;;;;4998821;28;20855;-84
2022/10/18 10:10:45;;;;;;;695.00;649.60;;;17.20;99.90;;;;;;4999225;28;20489;-83
2022/10/18 10:13:16;;;;;;;666.27;622.30;;;17.20;99.90;;;;;;4998970;28;20463;-84
2022/10/18 10:15:46;;;;;;;643.60;603.77;;;17.10;99.90;;;;;;4998474;28;20991;-84
2022/10/18 10:18:21;;;;;;;665.63;621.37;;;17.20;99.90;;;;;;4999771;28;20529;-83
2022/10/18 10:20:51;;;;;;;621.60;582.40;;;17.40;99.90;;;;;;4998938;28;20967;-84
2022/10/18 10:23:24;;;;;;;651.37;608.47;;;17.40;99.90;;;;;;4999040;28;20842;-84
2022/10/18 10:25:53;;;;;;;613.50;574.53;;;17.40;99.90;;;;;;4999416;28;20479;-83
2022/10/18 10:28:22;;;;;;;582.97;548.93;;;17.30;99.90;;;;;;4999115;28;20464;-84
2022/10/18 10:30:49;;;;;;;610.17;571.47;;;17.30;99.90;;;;;;5000052;28;20827;-84
2022/10/18 10:33:34;;;;;;;646.93;603.43;;;17.20;99.90;;;;;;4999330;28;20455;-84
2022/10/18 10:36:02;;;;;;;572.47;536.77;;;17.30;99.90;;;;;;4999465;28;20494;-85
2022/10/18 10:38:30;;;;;;;540.50;506.10;;;17.40;99.90;;;;;;4999819;28;20458;-83
2022/10/18 10:40:58;;;;;;;517.43;486.73;;;17.40;99.90;;;;;;4999072;28;20456;-83
2022/10/18 10:43:27;;;;;;;545.37;513.33;;;17.30;99.90;;;;;;4998578;28;20827;-84
2022/10/18 10:46:01;;;;;;;501.43;469.77;;;17.20;99.90;;;;;;4998652;28;20479;-83
2022/10/18 10:48:31;;;;;;;469.73;440.73;;;17.00;99.90;;;;;;4998974;28;20490;-84
2022/10/18 10:51:04;;;;;;;485.60;457.27;;;17.00;99.90;;;;;;4999434;28;20535;-84
2022/10/18 10:53:43;;;;;;;467.40;437.53;;;16.90;99.90;;;;;;4997283;28;20571;-84
2022/10/18 10:56:26;;;;;;;405.07;377.37;;;16.90;99.90;;;;;;4998256;28;20505;-83
2022/10/18 10:58:55;;;;;;;372.93;346.77;;;16.90;99.90;;;;;;4997066;28;20492;-84
2022/10/18 11:01:28;;;;;;;349.20;324.87;;;16.90;99.90;;;;;;4998888;28;20458;-85
2022/10/18 11:03:57;;;;;;;430.13;399.33;;;17.00;99.90;;;;;;4997836;28;20459;-85
2022/10/18 11:07:03;;;;;;;389.97;362.20;;;17.00;99.90;;;;;;4998461;28;20561;-85
2022/10/18 11:09:45;;;;;;;350.50;324.80;;;17.00;99.90;;;;;;4997885;28;20491;-85
2022/10/18 11:12:23;;;;;;;322.93;299.97;;;17.00;99.90;;;;;;4998094;28;20462;-85
2022/10/18 11:14:59;;;;;;;279.10;259.30;;;16.90;99.90;;;;;;4997117;28;20806;-85
2022/10/18 11:17:32;;;;;;;281.80;261.57;;;17.00;99.90;;;;;;4998053;28;20586;-85
2022/10/18 11:20:12;;;;;;;268.57;249.70;;;17.10;99.90;;;;;;4998191;28;20513;-85
2022/10/18 11:22:43;;;;;;;253.70;235.37;;;17.00;99.90;;;;;;4997973;28;20457;-85
2022/10/18 11:25:15;;;;;;;260.27;242.07;;;17.20;99.90;;;;;;4997586;28;20460;-85
2022/10/18 11:27:48;;;;;;;253.13;235.60;;;17.20;99.90;;;;;;4999184;28;20454;-85
2022/10/18 11:30:31;;;;;;;223.27;207.37;;;17.20;99.90;;;;;;4999583;28;20470;-85
2022/10/18 11:33:06;;;;;;;227.87;212.57;;;17.20;99.90;;;;;;5000022;28;20465;-85
2022/10/18 11:35:40;;;;;;;274.33;257.03;;;17.20;99.90;;;;;;4998811;28;20812;-85
2022/10/18 11:38:22;;;;;;;205.90;192.40;;;17.40;99.90;;;;;;4998226;28;20457;-85
2022/10/18 11:41:05;;;;;;;185.93;173.77;;;17.40;99.90;;;;;;4997502;28;20458;-85
2022/10/18 11:43:40;;;;;;;122.47;112.37;;;17.40;99.90;;;;;;4998868;28;20457;-87
2022/10/18 11:46:14;;;;;;;95.10;86.13;;;17.50;99.90;;;;;;4997850;28;20474;-84
2022/10/18 11:48:54;;;;;;;102.47;93.23;;;17.50;99.90;;;;;;4997605;28;20455;-84
2022/10/18 11:51:30;;;;;;;105.20;96.70;;;17.60;99.90;;;;;;4998568;28;20479;-85
2022/10/18 11:54:13;;;;;;;85.97;78.37;;;17.90;99.90;;;;;;4997890;28;20451;-84
2022/10/18 11:56:49;;;;;;;60.57;33.80;;;18.00;99.90;;;;;;4999412;28;20527;-84
2022/10/18 11:59:27;;;;;;;62.60;31.90;;;18.10;99.90;;;;;;5007253;28;20527;-85
2022/10/18 12:02:03;;;;;;;64.60;28.83;;;18.20;99.90;;;;;;5007641;28;20444;-88
2022/10/18 12:04:35;;;;;;;49.87;25.93;;;18.50;99.90;;;;;;5001124;28;20466;-85
2022/10/18 12:07:05;;;;;;;47.60;25.70;;;18.60;99.90;;;;;;5013527;28;20460;-85
2022/10/18 12:09:36;;;;;;;47.40;25.40;;;19.10;99.90;;;;;;5016923;28;20485;-85
2022/10/18 12:12:12;;;;;;;43.60;20.40;;;19.40;99.90;;;;;;5016821;28;20451;-85
2022/10/18 12:14:44;;;;;;;47.93;22.63;;;19.60;99.90;;;;;;5015343;28;20459;-85
2022/10/18 12:17:18;;;;;;;40.10;23.30;;;20.10;99.90;;;;;;5002495;28;20483;-85
2022/10/18 12:19:47;;;;;;;37.83;21.33;;;20.50;99.90;;;;;;5001068;28;20466;-85
2022/10/18 12:22:18;;;;;;;38.17;21.43;;;20.60;99.90;;;;;;5001687;28;20467;-85
2022/10/18 12:24:45;;;;;;;40.50;20.20;;;20.80;99.90;;;;;;4990642;28;20457;-85